sensor_id;sensor_type;location;lat;lon;timestamp;P1;durP1;ratioP1;P2;durP2;ratioP2
53521;SDS011;39398;48.382;9.802;2023-02-23T00:04:02;35.17;;;17.42;;
53521;SDS011;39398;48.382;9.802;2023-02-23T00:09:05;36.53;;;18.30;;
53521;SDS011;39398;48.382;9.802;2023-02-23T00:14:07;31.83;;;17.83;;
53521;SDS011;39398;48.382;9.802;2023-02-23T00:19:09;37.65;;;17.85;;
53521;SDS011;39398;48.382;9.802;2023-02-23T00:24:13;31.30;;;17.42;;
53521;SDS011;39398;48.382;9.802;2023-02-23T00:29:15;35.70;;;18.25;;
53521;SDS011;39398;48.382;9.802;2023-02-23T00:34:18;30.92;;;17.55;;
53521;SDS011;39398;48.382;9.802;2023-02-23T00:39:22;36.90;;;18.30;;
53521;SDS011;39398;48.382;9.802;2023-02-23T00:44:24;35.42;;;18.48;;
53521;SDS011;39398;48.382;9.802;2023-02-23T00:49:25;34.85;;;18.20;;
53521;SDS011;39398;48.382;9.802;2023-02-23T00:54:28;34.58;;;19.23;;
53521;SDS011;39398;48.382;9.802;2023-02-23T00:59:30;44.22;;;19.77;;
53521;SDS011;39398;48.382;9.802;2023-02-23T01:04:31;35.80;;;18.67;;
53521;SDS011;39398;48.382;9.802;2023-02-23T01:09:34;38.30;;;19.27;;
53521;SDS011;39398;48.382;9.802;2023-02-23T01:14:36;34.40;;;18.95;;
53521;SDS011;39398;48.382;9.802;2023-02-23T01:19:37;38.25;;;18.88;;
53521;SDS011;39398;48.382;9.802;2023-02-23T01:24:40;35.80;;;19.15;;
53521;SDS011;39398;48.382;9.802;2023-02-23T01:29:42;35.05;;;18.73;;
53521;SDS011;39398;48.382;9.802;2023-02-23T01:34:43;37.53;;;18.85;;
53521;SDS011;39398;48.382;9.802;2023-02-23T01:39:46;37.70;;;19.45;;
53521;SDS011;39398;48.382;9.802;2023-02-23T01:50:36;37.17;;;18.45;;
53521;SDS011;39398;48.382;9.802;2023-02-23T01:55:44;38.42;;;19.05;;
53521;SDS011;39398;48.382;9.802;2023-02-23T02:00:46;34.50;;;17.95;;
53521;SDS011;39398;48.382;9.802;2023-02-23T02:05:50;33.50;;;18.67;;
53521;SDS011;39398;48.382;9.802;2023-02-23T02:10:54;40.90;;;19.50;;
53521;SDS011;39398;48.382;9.802;2023-02-23T02:16:09;35.15;;;18.75;;
53521;SDS011;39398;48.382;9.802;2023-02-23T02:26:59;34.95;;;17.80;;
53521;SDS011;39398;48.382;9.802;2023-02-23T02:32:28;36.13;;;19.30;;
53521;SDS011;39398;48.382;9.802;2023-02-23T02:37:43;39.08;;;19.55;;
53521;SDS011;39398;48.382;9.802;2023-02-23T02:42:53;35.35;;;20.08;;
53521;SDS011;39398;48.382;9.802;2023-02-23T02:48:02;42.65;;;19.95;;
53521;SDS011;39398;48.382;9.802;2023-02-23T02:53:12;37.38;;;19.20;;
53521;SDS011;39398;48.382;9.802;2023-02-23T02:58:18;38.22;;;19.10;;
53521;SDS011;39398;48.382;9.802;2023-02-23T03:03:26;39.00;;;18.95;;
53521;SDS011;39398;48.382;9.802;2023-02-23T03:08:32;39.03;;;19.80;;
53521;SDS011;39398;48.382;9.802;2023-02-23T03:13:42;33.75;;;19.60;;
53521;SDS011;39398;48.382;9.802;2023-02-23T03:18:57;41.28;;;19.67;;
53521;SDS011;39398;48.382;9.802;2023-02-23T03:24:12;40.28;;;21.23;;
53521;SDS011;39398;48.382;9.802;2023-02-23T03:29:24;38.40;;;21.05;;
53521;SDS011;39398;48.382;9.802;2023-02-23T03:34:34;42.28;;;20.50;;
53521;SDS011;39398;48.382;9.802;2023-02-23T03:39:42;42.97;;;20.33;;
53521;SDS011;39398;48.382;9.802;2023-02-23T03:44:50;37.75;;;20.42;;
53521;SDS011;39398;48.382;9.802;2023-02-23T03:49:54;42.35;;;20.83;;
53521;SDS011;39398;48.382;9.802;2023-02-23T03:54:59;39.80;;;20.83;;
53521;SDS011;39398;48.382;9.802;2023-02-23T04:00:05;47.50;;;21.90;;
53521;SDS011;39398;48.382;9.802;2023-02-23T04:05:12;44.50;;;23.40;;
53521;SDS011;39398;48.382;9.802;2023-02-23T04:10:19;44.80;;;21.38;;
53521;SDS011;39398;48.382;9.802;2023-02-23T04:15:24;47.25;;;22.85;;
53521;SDS011;39398;48.382;9.802;2023-02-23T04:20:30;49.70;;;23.08;;
53521;SDS011;39398;48.382;9.802;2023-02-23T04:25:33;46.35;;;23.90;;
53521;SDS011;39398;48.382;9.802;2023-02-23T04:30:35;46.53;;;23.33;;
53521;SDS011;39398;48.382;9.802;2023-02-23T04:35:37;48.42;;;23.08;;
53521;SDS011;39398;48.382;9.802;2023-02-23T04:40:40;45.92;;;21.65;;
53521;SDS011;39398;48.382;9.802;2023-02-23T04:45:41;44.63;;;22.30;;
53521;SDS011;39398;48.382;9.802;2023-02-23T04:50:44;49.20;;;21.95;;
53521;SDS011;39398;48.382;9.802;2023-02-23T04:55:47;43.28;;;22.20;;
53521;SDS011;39398;48.382;9.802;2023-02-23T05:00:48;46.58;;;22.80;;
53521;SDS011;39398;48.382;9.802;2023-02-23T05:05:50;42.20;;;20.83;;
53521;SDS011;39398;48.382;9.802;2023-02-23T05:10:53;44.03;;;21.25;;
53521;SDS011;39398;48.382;9.802;2023-02-23T05:15:55;43.80;;;22.23;;
53521;SDS011;39398;48.382;9.802;2023-02-23T05:21:00;44.97;;;22.65;;
53521;SDS011;39398;48.382;9.802;2023-02-23T05:26:05;43.67;;;21.75;;
53521;SDS011;39398;48.382;9.802;2023-02-23T05:31:11;48.90;;;26.15;;
53521;SDS011;39398;48.382;9.802;2023-02-23T05:36:13;51.75;;;29.63;;
53521;SDS011;39398;48.382;9.802;2023-02-23T05:41:19;39.83;;;21.08;;
53521;SDS011;39398;48.382;9.802;2023-02-23T05:46:23;40.17;;;21.33;;
53521;SDS011;39398;48.382;9.802;2023-02-23T05:51:26;39.95;;;20.48;;
53521;SDS011;39398;48.382;9.802;2023-02-23T05:56:30;50.30;;;26.05;;
53521;SDS011;39398;48.382;9.802;2023-02-23T06:01:32;40.70;;;20.73;;
53521;SDS011;39398;48.382;9.802;2023-02-23T06:06:33;38.65;;;20.27;;
53521;SDS011;39398;48.382;9.802;2023-02-23T06:11:36;44.80;;;21.17;;
53521;SDS011;39398;48.382;9.802;2023-02-23T06:16:38;42.08;;;20.92;;
53521;SDS011;39398;48.382;9.802;2023-02-23T06:21:40;51.63;;;22.85;;
53521;SDS011;39398;48.382;9.802;2023-02-23T06:26:42;43.55;;;22.33;;
53521;SDS011;39398;48.382;9.802;2023-02-23T06:31:44;47.53;;;22.42;;
53521;SDS011;39398;48.382;9.802;2023-02-23T06:36:46;39.40;;;20.67;;
53521;SDS011;39398;48.382;9.802;2023-02-23T06:41:49;51.97;;;22.40;;
53521;SDS011;39398;48.382;9.802;2023-02-23T06:46:51;43.15;;;21.00;;
53521;SDS011;39398;48.382;9.802;2023-02-23T06:51:52;47.20;;;22.23;;
53521;SDS011;39398;48.382;9.802;2023-02-23T06:56:55;39.45;;;19.25;;
53521;SDS011;39398;48.382;9.802;2023-02-23T07:01:57;43.75;;;19.40;;
53521;SDS011;39398;48.382;9.802;2023-02-23T07:06:59;37.03;;;18.90;;
53521;SDS011;39398;48.382;9.802;2023-02-23T07:12:01;37.42;;;18.77;;
53521;SDS011;39398;48.382;9.802;2023-02-23T07:17:03;43.10;;;19.20;;
53521;SDS011;39398;48.382;9.802;2023-02-23T07:22:05;39.42;;;20.38;;
53521;SDS011;39398;48.382;9.802;2023-02-23T07:27:08;44.72;;;21.20;;
53521;SDS011;39398;48.382;9.802;2023-02-23T07:32:09;39.67;;;20.55;;
53521;SDS011;39398;48.382;9.802;2023-02-23T07:37:11;46.85;;;20.67;;
53521;SDS011;39398;48.382;9.802;2023-02-23T07:42:14;39.88;;;19.35;;
53521;SDS011;39398;48.382;9.802;2023-02-23T07:47:16;41.25;;;20.45;;
53521;SDS011;39398;48.382;9.802;2023-02-23T07:52:17;57.42;;;31.00;;
53521;SDS011;39398;48.382;9.802;2023-02-23T07:57:20;38.03;;;19.55;;
53521;SDS011;39398;48.382;9.802;2023-02-23T08:02:25;37.60;;;19.10;;
53521;SDS011;39398;48.382;9.802;2023-02-23T08:07:26;38.35;;;20.05;;
53521;SDS011;39398;48.382;9.802;2023-02-23T08:12:29;40.67;;;19.73;;
53521;SDS011;39398;48.382;9.802;2023-02-23T08:17:32;42.38;;;19.17;;
53521;SDS011;39398;48.382;9.802;2023-02-23T08:22:33;40.05;;;19.48;;
53521;SDS011;39398;48.382;9.802;2023-02-23T08:27:50;38.65;;;20.10;;
53521;SDS011;39398;48.382;9.802;2023-02-23T08:32:51;37.53;;;19.15;;
53521;SDS011;39398;48.382;9.802;2023-02-23T08:37:53;41.72;;;20.13;;
53521;SDS011;39398;48.382;9.802;2023-02-23T08:42:56;43.97;;;20.20;;
53521;SDS011;39398;48.382;9.802;2023-02-23T08:47:57;36.97;;;19.08;;
53521;SDS011;39398;48.382;9.802;2023-02-23T08:52:59;34.83;;;17.20;;
53521;SDS011;39398;48.382;9.802;2023-02-23T08:58:02;30.30;;;15.73;;
53521;SDS011;39398;48.382;9.802;2023-02-23T09:03:04;34.35;;;17.88;;
53521;SDS011;39398;48.382;9.802;2023-02-23T09:08:06;28.27;;;15.05;;
53521;SDS011;39398;48.382;9.802;2023-02-23T09:13:09;28.38;;;14.57;;
53521;SDS011;39398;48.382;9.802;2023-02-23T09:18:11;31.00;;;13.48;;
53521;SDS011;39398;48.382;9.802;2023-02-23T09:23:14;30.10;;;14.93;;
53521;SDS011;39398;48.382;9.802;2023-02-23T09:28:17;25.15;;;12.48;;
53521;SDS011;39398;48.382;9.802;2023-02-23T09:33:20;25.73;;;12.60;;
53521;SDS011;39398;48.382;9.802;2023-02-23T09:38:22;20.70;;;11.02;;
53521;SDS011;39398;48.382;9.802;2023-02-23T09:43:26;22.80;;;12.27;;
53521;SDS011;39398;48.382;9.802;2023-02-23T09:48:32;21.65;;;10.38;;
53521;SDS011;39398;48.382;9.802;2023-02-23T09:53:37;22.33;;;11.05;;
53521;SDS011;39398;48.382;9.802;2023-02-23T09:58:42;21.95;;;11.00;;
53521;SDS011;39398;48.382;9.802;2023-02-23T10:03:46;18.40;;;10.20;;
53521;SDS011;39398;48.382;9.802;2023-02-23T10:08:56;22.23;;;11.23;;
53521;SDS011;39398;48.382;9.802;2023-02-23T10:14:11;17.27;;;10.05;;
53521;SDS011;39398;48.382;9.802;2023-02-23T10:19:23;18.95;;;10.98;;
53521;SDS011;39398;48.382;9.802;2023-02-23T10:24:33;21.55;;;11.30;;
53521;SDS011;39398;48.382;9.802;2023-02-23T10:29:39;24.92;;;11.45;;
53521;SDS011;39398;48.382;9.802;2023-02-23T10:34:46;18.80;;;10.65;;
53521;SDS011;39398;48.382;9.802;2023-02-23T10:39:49;31.73;;;15.77;;
53521;SDS011;39398;48.382;9.802;2023-02-23T10:44:53;26.58;;;13.52;;
53521;SDS011;39398;48.382;9.802;2023-02-23T10:49:56;20.85;;;10.73;;
53521;SDS011;39398;48.382;9.802;2023-02-23T10:54:58;21.70;;;10.90;;
53521;SDS011;39398;48.382;9.802;2023-02-23T11:00:21;23.70;;;11.07;;
53521;SDS011;39398;48.382;9.802;2023-02-23T11:05:30;20.40;;;9.67;;
53521;SDS011;39398;48.382;9.802;2023-02-23T11:10:33;22.08;;;9.65;;
53521;SDS011;39398;48.382;9.802;2023-02-23T11:15:37;25.20;;;11.85;;
53521;SDS011;39398;48.382;9.802;2023-02-23T11:20:51;22.83;;;11.40;;
53521;SDS011;39398;48.382;9.802;2023-02-23T11:25:54;22.35;;;11.32;;
53521;SDS011;39398;48.382;9.802;2023-02-23T11:30:59;31.08;;;13.73;;
53521;SDS011;39398;48.382;9.802;2023-02-23T11:36:14;25.48;;;12.90;;
53521;SDS011;39398;48.382;9.802;2023-02-23T11:41:18;28.83;;;12.85;;
53521;SDS011;39398;48.382;9.802;2023-02-23T11:46:23;44.10;;;20.77;;
53521;SDS011;39398;48.382;9.802;2023-02-23T11:51:28;28.40;;;13.10;;
53521;SDS011;39398;48.382;9.802;2023-02-23T11:56:32;27.42;;;12.48;;
53521;SDS011;39398;48.382;9.802;2023-02-23T12:01:40;30.75;;;13.18;;
53521;SDS011;39398;48.382;9.802;2023-02-23T12:06:44;26.73;;;12.48;;
53521;SDS011;39398;48.382;9.802;2023-02-23T12:11:48;25.58;;;12.65;;
53521;SDS011;39398;48.382;9.802;2023-02-23T12:16:56;24.48;;;11.93;;
53521;SDS011;39398;48.382;9.802;2023-02-23T12:22:04;18.05;;;10.25;;
53521;SDS011;39398;48.382;9.802;2023-02-23T12:27:13;32.20;;;14.57;;
53521;SDS011;39398;48.382;9.802;2023-02-23T12:32:19;30.35;;;12.10;;
53521;SDS011;39398;48.382;9.802;2023-02-23T12:37:28;24.02;;;10.05;;
53521;SDS011;39398;48.382;9.802;2023-02-23T12:42:37;28.13;;;12.20;;
53521;SDS011;39398;48.382;9.802;2023-02-23T12:47:45;27.88;;;14.13;;
53521;SDS011;39398;48.382;9.802;2023-02-23T12:52:52;25.02;;;12.43;;
53521;SDS011;39398;48.382;9.802;2023-02-23T12:57:57;26.73;;;12.07;;
53521;SDS011;39398;48.382;9.802;2023-02-23T13:03:14;21.05;;;11.55;;
53521;SDS011;39398;48.382;9.802;2023-02-23T13:08:40;28.30;;;13.00;;
53521;SDS011;39398;48.382;9.802;2023-02-23T13:13:55;23.58;;;10.70;;
53521;SDS011;39398;48.382;9.802;2023-02-23T13:19:04;23.52;;;10.50;;
53521;SDS011;39398;48.382;9.802;2023-02-23T13:24:15;20.83;;;11.35;;
53521;SDS011;39398;48.382;9.802;2023-02-23T13:29:23;19.20;;;10.68;;
53521;SDS011;39398;48.382;9.802;2023-02-23T13:34:31;22.27;;;10.85;;
53521;SDS011;39398;48.382;9.802;2023-02-23T13:39:58;20.58;;;12.23;;
53521;SDS011;39398;48.382;9.802;2023-02-23T13:45:19;24.83;;;12.95;;
53521;SDS011;39398;48.382;9.802;2023-02-23T13:55:36;24.60;;;13.00;;
53521;SDS011;39398;48.382;9.802;2023-02-23T14:00:52;24.13;;;11.60;;
53521;SDS011;39398;48.382;9.802;2023-02-23T14:06:04;26.58;;;12.63;;
53521;SDS011;39398;48.382;9.802;2023-02-23T14:11:07;25.33;;;12.27;;
53521;SDS011;39398;48.382;9.802;2023-02-23T14:16:10;20.30;;;12.02;;
53521;SDS011;39398;48.382;9.802;2023-02-23T14:21:21;19.90;;;9.25;;
53521;SDS011;39398;48.382;9.802;2023-02-23T14:26:36;17.38;;;7.07;;
53521;SDS011;39398;48.382;9.802;2023-02-23T14:31:51;17.92;;;6.20;;
53521;SDS011;39398;48.382;9.802;2023-02-23T14:36:56;4.18;;;2.45;;
53521;SDS011;39398;48.382;9.802;2023-02-23T14:42:04;9.05;;;3.25;;
53521;SDS011;39398;48.382;9.802;2023-02-23T14:47:07;5.72;;;2.67;;
53521;SDS011;39398;48.382;9.802;2023-02-23T14:52:16;4.32;;;2.42;;
53521;SDS011;39398;48.382;9.802;2023-02-23T14:57:22;5.60;;;2.80;;
53521;SDS011;39398;48.382;9.802;2023-02-23T15:02:26;6.28;;;3.00;;
53521;SDS011;39398;48.382;9.802;2023-02-23T15:07:30;4.00;;;2.22;;
53521;SDS011;39398;48.382;9.802;2023-02-23T15:12:36;5.32;;;2.50;;
53521;SDS011;39398;48.382;9.802;2023-02-23T15:17:39;7.78;;;2.55;;
53521;SDS011;39398;48.382;9.802;2023-02-23T15:22:45;5.40;;;3.05;;
53521;SDS011;39398;48.382;9.802;2023-02-23T15:27:49;12.93;;;6.40;;
53521;SDS011;39398;48.382;9.802;2023-02-23T15:32:57;12.82;;;4.47;;
53521;SDS011;39398;48.382;9.802;2023-02-23T15:38:02;13.00;;;6.13;;
53521;SDS011;39398;48.382;9.802;2023-02-23T15:43:25;11.57;;;4.38;;
53521;SDS011;39398;48.382;9.802;2023-02-23T15:48:28;17.17;;;4.72;;
53521;SDS011;39398;48.382;9.802;2023-02-23T15:53:42;8.27;;;4.53;;
53521;SDS011;39398;48.382;9.802;2023-02-23T15:58:47;13.63;;;7.07;;
53521;SDS011;39398;48.382;9.802;2023-02-23T16:03:59;10.75;;;6.80;;
53521;SDS011;39398;48.382;9.802;2023-02-23T16:09:12;8.57;;;4.75;;
53521;SDS011;39398;48.382;9.802;2023-02-23T16:14:15;12.25;;;5.70;;
53521;SDS011;39398;48.382;9.802;2023-02-23T16:19:19;23.85;;;12.27;;
53521;SDS011;39398;48.382;9.802;2023-02-23T16:24:24;12.48;;;7.32;;
53521;SDS011;39398;48.382;9.802;2023-02-23T16:29:31;16.42;;;7.28;;
53521;SDS011;39398;48.382;9.802;2023-02-23T16:34:34;7.25;;;3.58;;
53521;SDS011;39398;48.382;9.802;2023-02-23T16:39:46;164.95;;;8.40;;
53521;SDS011;39398;48.382;9.802;2023-02-23T16:44:47;13.77;;;4.07;;
53521;SDS011;39398;48.382;9.802;2023-02-23T16:49:49;14.90;;;4.28;;
53521;SDS011;39398;48.382;9.802;2023-02-23T16:54:53;102.65;;;7.63;;
53521;SDS011;39398;48.382;9.802;2023-02-23T16:59:56;306.45;;;14.35;;
53521;SDS011;39398;48.382;9.802;2023-02-23T17:04:58;99.82;;;7.55;;
53521;SDS011;39398;48.382;9.802;2023-02-23T17:10:00;117.95;;;10.73;;
53521;SDS011;39398;48.382;9.802;2023-02-23T17:15:02;140.30;;;11.90;;
53521;SDS011;39398;48.382;9.802;2023-02-23T17:20:05;23.02;;;7.25;;
53521;SDS011;39398;48.382;9.802;2023-02-23T17:25:09;14.30;;;6.15;;
53521;SDS011;39398;48.382;9.802;2023-02-23T17:30:11;12.18;;;5.53;;
53521;SDS011;39398;48.382;9.802;2023-02-23T17:35:13;16.05;;;8.02;;
53521;SDS011;39398;48.382;9.802;2023-02-23T17:45:21;11.55;;;5.10;;
53521;SDS011;39398;48.382;9.802;2023-02-23T17:50:23;12.00;;;5.50;;
53521;SDS011;39398;48.382;9.802;2023-02-23T17:55:26;10.43;;;4.93;;
53521;SDS011;39398;48.382;9.802;2023-02-23T18:00:28;11.93;;;5.20;;
53521;SDS011;39398;48.382;9.802;2023-02-23T18:05:29;11.55;;;5.30;;
53521;SDS011;39398;48.382;9.802;2023-02-23T18:10:32;6.78;;;3.65;;
53521;SDS011;39398;48.382;9.802;2023-02-23T18:15:34;15.73;;;6.78;;
53521;SDS011;39398;48.382;9.802;2023-02-23T18:20:36;35.30;;;14.63;;
53521;SDS011;39398;48.382;9.802;2023-02-23T18:25:39;16.23;;;9.02;;
53521;SDS011;39398;48.382;9.802;2023-02-23T18:30:40;8.85;;;5.53;;
53521;SDS011;39398;48.382;9.802;2023-02-23T18:35:43;11.10;;;5.40;;
53521;SDS011;39398;48.382;9.802;2023-02-23T18:40:46;11.82;;;5.18;;
53521;SDS011;39398;48.382;9.802;2023-02-23T18:45:47;7.63;;;4.40;;
53521;SDS011;39398;48.382;9.802;2023-02-23T18:50:53;10.27;;;5.35;;
53521;SDS011;39398;48.382;9.802;2023-02-23T18:55:57;10.68;;;4.72;;
53521;SDS011;39398;48.382;9.802;2023-02-23T19:01:08;6.22;;;2.90;;
53521;SDS011;39398;48.382;9.802;2023-02-23T19:06:11;11.60;;;5.00;;
53521;SDS011;39398;48.382;9.802;2023-02-23T19:11:14;14.60;;;7.80;;
53521;SDS011;39398;48.382;9.802;2023-02-23T19:16:16;11.00;;;7.30;;
53521;SDS011;39398;48.382;9.802;2023-02-23T19:21:18;6.55;;;3.10;;
53521;SDS011;39398;48.382;9.802;2023-02-23T19:26:22;6.00;;;1.65;;
53521;SDS011;39398;48.382;9.802;2023-02-23T19:31:25;6.32;;;3.25;;
53521;SDS011;39398;48.382;9.802;2023-02-23T19:36:27;48.78;;;6.63;;
53521;SDS011;39398;48.382;9.802;2023-02-23T19:41:30;489.40;;;26.02;;
53521;SDS011;39398;48.382;9.802;2023-02-23T19:46:33;409.08;;;21.88;;
53521;SDS011;39398;48.382;9.802;2023-02-23T19:51:35;402.60;;;22.88;;
53521;SDS011;39398;48.382;9.802;2023-02-23T19:56:38;389.63;;;25.70;;
53521;SDS011;39398;48.382;9.802;2023-02-23T20:01:40;156.18;;;13.88;;
53521;SDS011;39398;48.382;9.802;2023-02-23T20:06:42;15.35;;;7.68;;
53521;SDS011;39398;48.382;9.802;2023-02-23T20:11:46;17.90;;;9.75;;
53521;SDS011;39398;48.382;9.802;2023-02-23T20:16:47;12.15;;;6.47;;
53521;SDS011;39398;48.382;9.802;2023-02-23T20:21:49;10.48;;;5.90;;
53521;SDS011;39398;48.382;9.802;2023-02-23T20:26:52;18.70;;;8.20;;
53521;SDS011;39398;48.382;9.802;2023-02-23T20:31:55;22.55;;;12.65;;
53521;SDS011;39398;48.382;9.802;2023-02-23T20:36:57;12.18;;;5.40;;
53521;SDS011;39398;48.382;9.802;2023-02-23T20:41:59;9.32;;;4.25;;
53521;SDS011;39398;48.382;9.802;2023-02-23T20:47:01;11.65;;;4.55;;
53521;SDS011;39398;48.382;9.802;2023-02-23T20:52:03;20.35;;;8.13;;
53521;SDS011;39398;48.382;9.802;2023-02-23T20:57:06;17.27;;;7.28;;
53521;SDS011;39398;48.382;9.802;2023-02-23T21:02:09;13.98;;;7.18;;
53521;SDS011;39398;48.382;9.802;2023-02-23T21:07:11;12.70;;;6.60;;
53521;SDS011;39398;48.382;9.802;2023-02-23T21:12:14;12.25;;;6.25;;
53521;SDS011;39398;48.382;9.802;2023-02-23T21:17:17;9.80;;;4.97;;
53521;SDS011;39398;48.382;9.802;2023-02-23T21:22:19;13.98;;;5.72;;
53521;SDS011;39398;48.382;9.802;2023-02-23T21:27:22;19.63;;;10.27;;
53521;SDS011;39398;48.382;9.802;2023-02-23T21:32:23;13.70;;;7.70;;
53521;SDS011;39398;48.382;9.802;2023-02-23T21:37:25;17.10;;;6.35;;
53521;SDS011;39398;48.382;9.802;2023-02-23T21:42:28;21.25;;;10.38;;
53521;SDS011;39398;48.382;9.802;2023-02-23T21:47:32;27.38;;;12.57;;
53521;SDS011;39398;48.382;9.802;2023-02-23T21:52:34;26.23;;;10.65;;
53521;SDS011;39398;48.382;9.802;2023-02-23T21:57:37;14.30;;;7.35;;
53521;SDS011;39398;48.382;9.802;2023-02-23T22:02:39;21.95;;;10.80;;
53521;SDS011;39398;48.382;9.802;2023-02-23T22:07:40;19.92;;;7.30;;
53521;SDS011;39398;48.382;9.802;2023-02-23T22:12:49;43.53;;;9.02;;
53521;SDS011;39398;48.382;9.802;2023-02-23T22:17:51;20.75;;;8.50;;
53521;SDS011;39398;48.382;9.802;2023-02-23T22:22:52;16.35;;;9.00;;
53521;SDS011;39398;48.382;9.802;2023-02-23T22:27:55;19.27;;;9.75;;
53521;SDS011;39398;48.382;9.802;2023-02-23T22:32:57;20.85;;;11.82;;
53521;SDS011;39398;48.382;9.802;2023-02-23T22:37:59;53.53;;;22.38;;
53521;SDS011;39398;48.382;9.802;2023-02-23T22:43:02;33.78;;;15.73;;
53521;SDS011;39398;48.382;9.802;2023-02-23T22:48:03;25.38;;;13.40;;
53521;SDS011;39398;48.382;9.802;2023-02-23T22:53:05;197.85;;;78.85;;
53521;SDS011;39398;48.382;9.802;2023-02-23T22:58:08;40.70;;;18.33;;
53521;SDS011;39398;48.382;9.802;2023-02-23T23:03:09;30.10;;;14.43;;
53521;SDS011;39398;48.382;9.802;2023-02-23T23:08:11;31.40;;;15.35;;
53521;SDS011;39398;48.382;9.802;2023-02-23T23:13:14;27.60;;;14.27;;
53521;SDS011;39398;48.382;9.802;2023-02-23T23:18:16;27.50;;;13.75;;
53521;SDS011;39398;48.382;9.802;2023-02-23T23:23:17;22.67;;;11.45;;
53521;SDS011;39398;48.382;9.802;2023-02-23T23:28:20;26.13;;;12.40;;
53521;SDS011;39398;48.382;9.802;2023-02-23T23:33:22;22.65;;;11.07;;
53521;SDS011;39398;48.382;9.802;2023-02-23T23:38:23;20.42;;;9.93;;
53521;SDS011;39398;48.382;9.802;2023-02-23T23:43:26;26.42;;;11.23;;
53521;SDS011;39398;48.382;9.802;2023-02-23T23:48:28;25.00;;;11.35;;
53521;SDS011;39398;48.382;9.802;2023-02-23T23:53:30;24.60;;;12.48;;
53521;SDS011;39398;48.382;9.802;2023-02-23T23:58:33;23.10;;;12.32;;
